createdAt,value
2018-10-04T00:01:01.361Z,0
2018-10-04T00:02:11.312Z,0
2018-10-04T00:03:21.248Z,0
2018-10-04T00:04:31.185Z,0
2018-10-04T00:05:40.891Z,0
2018-10-04T00:06:50.830Z,0
2018-10-04T00:08:00.785Z,0
2018-10-04T00:09:10.735Z,0
2018-10-04T00:10:20.709Z,0
2018-10-04T00:11:30.669Z,0
2018-10-04T00:12:40.620Z,0
2018-10-04T00:13:50.298Z,0
2018-10-04T00:14:59.989Z,0
2018-10-04T00:16:09.678Z,0
2018-10-04T00:17:19.353Z,0
2018-10-04T00:18:29.292Z,0
2018-10-04T00:19:39.234Z,0
2018-10-04T00:20:49.182Z,0
2018-10-04T00:21:59.139Z,0
2018-10-04T00:23:08.817Z,0
2018-10-04T00:24:18.747Z,0
2018-10-04T00:25:28.428Z,0
2018-10-04T00:26:38.113Z,0
2018-10-04T00:27:48.056Z,0
2018-10-04T00:28:57.999Z,0
2018-10-04T00:30:07.927Z,0
2018-10-04T00:31:17.869Z,0
2018-10-04T00:32:27.804Z,0
2018-10-04T00:33:37.756Z,0
2018-10-04T00:34:47.451Z,0
2018-10-04T00:35:56.891Z,0
2018-10-04T00:37:06.820Z,0
2018-10-04T00:38:16.238Z,0
2018-10-04T00:39:26.185Z,0
2018-10-04T00:40:36.141Z,0
2018-10-04T00:41:45.573Z,0
2018-10-04T00:42:55.514Z,0
2018-10-04T00:44:05.484Z,0
2018-10-04T00:45:15.427Z,0
2018-10-04T00:46:25.388Z,0
2018-10-04T00:47:35.309Z,0
2018-10-04T00:48:45.260Z,0
2018-10-04T00:49:55.189Z,0
2018-10-04T00:51:04.895Z,0
2018-10-04T00:52:14.574Z,0
2018-10-04T00:53:24.525Z,0
2018-10-04T00:54:33.446Z,0
2018-10-04T00:55:43.403Z,0
2018-10-04T00:56:53.334Z,0
2018-10-04T00:58:03.284Z,0
2018-10-04T00:59:13.225Z,0
2018-10-04T01:00:23.172Z,0
2018-10-04T01:01:32.597Z,0
2018-10-04T01:02:42.302Z,0
2018-10-04T01:03:52.242Z,0
2018-10-04T01:05:02.384Z,0
2018-10-04T01:06:12.421Z,0
2018-10-04T01:07:22.356Z,0
2018-10-04T01:08:32.033Z,0
2018-10-04T01:09:41.702Z,0
2018-10-04T01:10:51.642Z,0
2018-10-04T01:12:01.070Z,0
2018-10-04T01:13:10.767Z,0
2018-10-04T01:14:20.720Z,0
2018-10-04T01:15:30.670Z,0
2018-10-04T01:16:40.113Z,0
2018-10-04T01:17:50.056Z,0
2018-10-04T01:18:59.990Z,0
2018-10-04T01:20:09.425Z,0
2018-10-04T01:21:19.363Z,0
2018-10-04T01:22:29.044Z,0
2018-10-04T01:23:38.977Z,0
2018-10-04T01:24:48.911Z,0
2018-10-04T01:25:58.855Z,0
2018-10-04T01:27:08.790Z,0
2018-10-04T01:28:18.464Z,0
2018-10-04T01:29:28.396Z,0
2018-10-04T01:30:38.096Z,0
2018-10-04T01:31:48.045Z,0
2018-10-04T01:32:57.717Z,0
2018-10-04T01:34:07.402Z,0
2018-10-04T01:35:17.310Z,0
2018-10-04T01:36:27.283Z,0
2018-10-04T01:37:37.231Z,0
2018-10-04T01:38:46.925Z,0
2018-10-04T01:39:56.866Z,0
2018-10-04T01:41:06.798Z,0
2018-10-04T01:42:16.731Z,0
2018-10-04T01:43:26.412Z,0
2018-10-04T01:44:36.343Z,0
2018-10-04T01:45:46.085Z,0
2018-10-04T01:46:55.773Z,0
2018-10-04T01:48:05.717Z,0
2018-10-04T01:49:15.679Z,0
2018-10-04T01:50:25.385Z,0
2018-10-04T01:51:35.058Z,0
2018-10-04T01:52:44.984Z,0
2018-10-04T01:53:54.915Z,0
2018-10-04T01:55:04.872Z,0
2018-10-04T01:56:14.809Z,0
2018-10-04T01:57:24.759Z,0
2018-10-04T01:58:34.921Z,0
2018-10-04T01:59:44.866Z,0
2018-10-04T02:00:54.549Z,0
2018-10-04T02:02:04.227Z,0
2018-10-04T02:03:13.914Z,0
2018-10-04T02:04:23.341Z,0
2018-10-04T02:05:33.275Z,0
2018-10-04T02:06:42.959Z,0
2018-10-04T02:07:52.926Z,0
2018-10-04T02:09:02.613Z,0
2018-10-04T02:10:12.287Z,0
2018-10-04T02:11:22.211Z,0
2018-10-04T02:12:32.169Z,0
2018-10-04T02:13:41.851Z,0
2018-10-04T02:14:51.279Z,0
2018-10-04T02:16:01.217Z,0
2018-10-04T02:17:10.652Z,0
2018-10-04T02:18:20.326Z,0
2018-10-04T02:19:30.022Z,0
2018-10-04T02:20:39.713Z,0
2018-10-04T02:21:49.398Z,0
2018-10-04T02:22:59.093Z,0
2018-10-04T02:24:09.030Z,0
2018-10-04T02:25:19.052Z,0
2018-10-04T02:26:28.990Z,0
2018-10-04T02:27:38.667Z,0
2018-10-04T02:28:48.598Z,0
2018-10-04T02:29:58.285Z,0
2018-10-04T02:31:08.226Z,0
2018-10-04T02:32:18.188Z,0
2018-10-04T02:33:28.174Z,0
2018-10-04T02:34:37.863Z,0
2018-10-04T02:35:47.798Z,0
2018-10-04T02:36:57.740Z,0
2018-10-04T02:38:07.690Z,0
2018-10-04T02:39:17.377Z,0
2018-10-04T02:40:27.068Z,0
2018-10-04T02:41:37.012Z,0
2018-10-04T02:42:46.558Z,0
2018-10-04T02:43:56.506Z,0
2018-10-04T02:45:06.186Z,0
2018-10-04T02:46:15.885Z,0
2018-10-04T02:47:25.838Z,0
2018-10-04T02:48:35.566Z,0
2018-10-04T02:49:45.258Z,0
2018-10-04T02:50:55.196Z,0
2018-10-04T02:52:05.172Z,0
2018-10-04T02:53:14.864Z,0
2018-10-04T02:54:24.552Z,0
2018-10-04T02:55:34.245Z,0
2018-10-04T02:56:44.184Z,0
2018-10-04T02:57:53.881Z,0
2018-10-04T02:59:03.826Z,0
2018-10-04T03:00:13.788Z,0
2018-10-04T03:01:23.536Z,0
2018-10-04T03:02:33.478Z,0
2018-10-04T03:03:43.434Z,0
2018-10-04T03:04:53.392Z,0
2018-10-04T03:06:03.082Z,0
2018-10-04T03:07:12.778Z,0
2018-10-04T03:08:22.738Z,0
2018-10-04T03:09:32.435Z,0
2018-10-04T03:10:42.135Z,0
2018-10-04T03:11:52.085Z,0
2018-10-04T03:13:02.038Z,0
2018-10-04T03:14:11.724Z,0
2018-10-04T03:15:21.680Z,0
2018-10-04T03:16:31.625Z,0
2018-10-04T03:17:41.562Z,0
2018-10-04T03:18:51.257Z,0
2018-10-04T03:20:01.384Z,0
2018-10-04T03:21:11.536Z,0
2018-10-04T03:22:21.592Z,0
2018-10-04T03:23:31.278Z,0
2018-10-04T03:24:41.213Z,0
2018-10-04T03:25:50.378Z,0
2018-10-04T03:26:59.816Z,0
2018-10-04T03:28:09.515Z,0
2018-10-04T03:29:19.713Z,0
2018-10-04T03:30:29.646Z,0
2018-10-04T03:31:39.601Z,0
2018-10-04T03:32:49.282Z,0
2018-10-04T03:33:59.275Z,0
2018-10-04T03:35:09.220Z,0
2018-10-04T03:36:18.662Z,0
2018-10-04T03:37:28.600Z,0
2018-10-04T03:38:38.538Z,0
2018-10-04T03:39:48.708Z,0
2018-10-04T03:40:58.676Z,0
2018-10-04T03:42:08.642Z,0
2018-10-04T03:43:18.586Z,0
2018-10-04T03:44:28.997Z,0
2018-10-04T03:45:38.715Z,0
2018-10-04T03:46:48.648Z,0
2018-10-04T03:47:58.588Z,0
2018-10-04T03:49:08.544Z,0
2018-10-04T03:50:18.215Z,0
2018-10-04T03:51:28.143Z,0
2018-10-04T03:52:38.096Z,0
2018-10-04T03:53:47.793Z,0
2018-10-04T03:54:57.742Z,0
2018-10-04T03:56:07.704Z,0
2018-10-04T03:57:17.652Z,0
2018-10-04T03:58:27.598Z,0
2018-10-04T03:59:37.778Z,0
2018-10-04T04:00:47.722Z,0
2018-10-04T04:01:57.672Z,0
2018-10-04T04:03:07.604Z,0
2018-10-04T04:04:17.707Z,0
2018-10-04T04:05:27.658Z,0
2018-10-04T04:06:37.612Z,0
2018-10-04T04:07:47.302Z,0
2018-10-04T04:08:56.978Z,0
2018-10-04T04:10:06.663Z,0
2018-10-04T04:11:16.607Z,0
2018-10-04T04:12:26.556Z,0
2018-10-04T04:13:36.501Z,0
2018-10-04T04:14:46.177Z,0
2018-10-04T04:15:56.118Z,0
2018-10-04T04:17:06.077Z,0
2018-10-04T04:18:15.762Z,0
2018-10-04T04:19:25.185Z,0
2018-10-04T04:20:35.138Z,0
2018-10-04T04:21:45.073Z,0
2018-10-04T04:22:55.016Z,0
2018-10-04T04:24:04.986Z,0
2018-10-04T04:25:14.983Z,0
2018-10-04T04:26:24.543Z,0
2018-10-04T04:27:34.497Z,0
2018-10-04T04:28:44.430Z,0
2018-10-04T04:29:54.114Z,0
2018-10-04T04:31:04.065Z,0
2018-10-04T04:32:14.031Z,0
2018-10-04T04:33:23.971Z,0
2018-10-04T04:34:33.946Z,0
2018-10-04T04:35:43.672Z,0
2018-10-04T04:36:53.625Z,0
2018-10-04T04:38:03.577Z,4
2018-10-04T04:39:13.275Z,4
2018-10-04T04:40:22.952Z,0
2018-10-04T04:41:32.626Z,4
2018-10-04T04:42:42.311Z,4
2018-10-04T04:43:52.282Z,8
2018-10-04T04:45:02.231Z,8
2018-10-04T04:46:11.935Z,8
2018-10-04T04:47:22.118Z,12
2018-10-04T04:48:32.084Z,12
2018-10-04T04:49:41.770Z,20
2018-10-04T04:50:51.765Z,20
2018-10-04T04:52:01.702Z,28
2018-10-04T04:53:11.653Z,32
2018-10-04T04:54:21.590Z,40
2018-10-04T04:55:31.549Z,48
2018-10-04T04:56:41.507Z,60
2018-10-04T04:57:51.451Z,68
2018-10-04T04:59:01.125Z,84
2018-10-04T05:00:11.077Z,96
2018-10-04T05:01:21.037Z,116
2018-10-04T05:02:30.969Z,136
2018-10-04T05:03:40.921Z,156
2018-10-04T05:04:50.861Z,184
2018-10-04T05:06:00.432Z,212
2018-10-04T05:07:10.476Z,240
2018-10-04T05:08:20.434Z,276
2018-10-04T05:09:30.408Z,308
2018-10-04T05:10:40.358Z,352
2018-10-04T05:11:50.055Z,396
2018-10-04T05:13:00.000Z,448
2018-10-04T05:14:09.960Z,496
2018-10-04T05:15:19.908Z,552
2018-10-04T05:16:29.849Z,604
2018-10-04T05:17:39.555Z,664
2018-10-04T05:18:49.508Z,740
2018-10-04T05:19:59.451Z,816
2018-10-04T05:21:09.411Z,880
2018-10-04T05:22:19.536Z,936
2018-10-04T05:23:29.129Z,992
2018-10-04T05:24:39.073Z,1048
2018-10-04T05:25:48.755Z,1112
2018-10-04T05:26:58.690Z,1192
2018-10-04T05:28:08.650Z,1276
2018-10-04T05:29:18.353Z,1324
2018-10-04T05:30:28.055Z,1348
2018-10-04T05:31:37.737Z,1396
2018-10-04T05:32:47.685Z,1468
2018-10-04T05:33:57.641Z,1524
2018-10-04T05:35:07.326Z,1584
2018-10-04T05:36:17.031Z,1692
2018-10-04T05:37:27.253Z,1816
2018-10-04T05:38:37.422Z,1904
2018-10-04T05:39:47.366Z,1992
2018-10-04T05:40:57.035Z,2080
2018-10-04T05:42:06.760Z,2140
2018-10-04T05:43:16.712Z,2212
2018-10-04T05:44:26.661Z,2248
2018-10-04T05:45:36.400Z,2260
2018-10-04T05:46:46.172Z,2264
2018-10-04T05:47:56.116Z,2276
2018-10-04T05:49:05.804Z,2292
2018-10-04T05:50:15.773Z,2320
2018-10-04T05:51:25.720Z,2368
2018-10-04T05:52:35.422Z,2416
2018-10-04T05:53:45.359Z,2448
2018-10-04T05:54:55.311Z,2468
2018-10-04T05:56:04.737Z,2496
2018-10-04T05:57:14.929Z,2560
2018-10-04T05:58:24.883Z,2632
2018-10-04T05:59:35.388Z,2732
2018-10-04T06:00:45.096Z,2796
2018-10-04T06:01:55.119Z,2848
2018-10-04T06:03:05.098Z,2980
2018-10-04T06:04:14.791Z,3120
2018-10-04T06:05:25.031Z,3236
2018-10-04T06:06:35.669Z,3332
2018-10-04T06:07:45.373Z,3428
2018-10-04T06:08:55.356Z,3544
2018-10-04T06:10:05.292Z,3636
2018-10-04T06:11:14.737Z,3696
2018-10-04T06:12:24.817Z,3784
2018-10-04T06:13:34.776Z,3864
2018-10-04T06:14:44.755Z,3940
2018-10-04T06:15:54.561Z,3996
2018-10-04T06:17:04.523Z,4144
2018-10-04T06:18:14.484Z,4400
2018-10-04T06:19:24.455Z,4504
2018-10-04T06:20:34.144Z,4608
2018-10-04T06:21:43.867Z,4852
2018-10-04T06:22:53.641Z,5120
2018-10-04T06:24:03.817Z,5344
2018-10-04T06:25:13.522Z,5444
2018-10-04T06:26:23.229Z,5464
2018-10-04T06:27:33.221Z,5544
2018-10-04T06:28:43.372Z,5796
2018-10-04T06:29:53.245Z,6164
2018-10-04T06:31:02.690Z,6420
2018-10-04T06:32:12.637Z,6524
2018-10-04T06:33:22.637Z,6680
2018-10-04T06:34:32.592Z,6816
2018-10-04T06:35:42.273Z,6876
2018-10-04T06:36:52.298Z,6928
2018-10-04T06:38:01.988Z,7016
2018-10-04T06:39:11.719Z,7228
2018-10-04T06:40:22.064Z,7624
2018-10-04T06:41:32.028Z,7756
2018-10-04T06:42:42.004Z,7732
2018-10-04T06:43:52.168Z,7592
2018-10-04T06:45:01.894Z,7816
2018-10-04T06:46:11.851Z,8016
2018-10-04T06:47:22.028Z,8284
2018-10-04T06:48:31.721Z,8956
2018-10-04T06:49:41.735Z,9212
2018-10-04T06:50:51.690Z,9644
2018-10-04T06:52:01.436Z,10168
2018-10-04T06:53:11.139Z,10516
2018-10-04T06:54:20.611Z,10592
2018-10-04T06:55:30.849Z,10256
2018-10-04T06:56:40.897Z,9948
2018-10-04T06:57:50.831Z,9664
2018-10-04T06:59:01.026Z,9472
2018-10-04T07:00:10.727Z,9372
2018-10-04T07:01:20.231Z,9504
2018-10-04T07:02:29.664Z,10072
2018-10-04T07:03:39.832Z,10896
2018-10-04T07:04:49.901Z,12184
2018-10-04T07:05:59.877Z,12428
2018-10-04T07:07:09.307Z,12188
2018-10-04T07:08:19.279Z,12632
2018-10-04T07:09:29.217Z,13248
2018-10-04T07:10:39.164Z,13352
2018-10-04T07:11:48.590Z,13084
2018-10-04T07:12:58.564Z,12696
2018-10-04T07:14:08.545Z,12124
2018-10-04T07:15:18.501Z,11960
2018-10-04T07:16:28.204Z,12240
2018-10-04T07:17:37.646Z,12740
2018-10-04T07:18:47.595Z,12776
2018-10-04T07:19:57.313Z,12720
2018-10-04T07:21:07.739Z,13452
2018-10-04T07:22:17.713Z,13764
2018-10-04T07:23:27.735Z,14180
2018-10-04T07:24:37.205Z,13876
2018-10-04T07:25:46.627Z,13568
2018-10-04T07:26:56.696Z,13344
2018-10-04T07:28:06.642Z,13588
2018-10-04T07:29:16.348Z,14536
2018-10-04T07:30:25.778Z,14896
2018-10-04T07:31:35.913Z,14924
2018-10-04T07:32:45.695Z,14776
2018-10-04T07:33:55.642Z,14748
2018-10-04T07:35:05.612Z,14760
2018-10-04T07:36:15.600Z,14588
2018-10-04T07:37:25.556Z,14512
2018-10-04T07:38:35.572Z,14656
2018-10-04T07:39:45.254Z,14556
2018-10-04T07:40:54.954Z,14368
2018-10-04T07:42:05.377Z,14256
2018-10-04T07:43:15.317Z,13912
2018-10-04T07:44:25.267Z,14032
2018-10-04T07:45:34.966Z,14192
2018-10-04T07:46:44.917Z,15392
2018-10-04T07:47:54.625Z,16552
2018-10-04T07:49:04.313Z,18336
2018-10-04T07:50:14.358Z,19936
2018-10-04T07:51:24.545Z,21056
2018-10-04T07:52:34.507Z,21248
2018-10-04T07:53:44.198Z,21568
2018-10-04T07:54:53.908Z,23840
2018-10-04T07:56:03.865Z,24992
2018-10-04T07:57:13.820Z,24928
2018-10-04T07:58:23.992Z,29184
2018-10-04T07:59:33.986Z,32192
2018-10-04T08:00:43.977Z,27392
2018-10-04T08:01:53.687Z,22432
2018-10-04T08:03:03.660Z,21920
2018-10-04T08:04:13.371Z,20608
2018-10-04T08:05:23.305Z,22880
2018-10-04T08:06:33.661Z,21824
2018-10-04T08:07:43.228Z,24224
2018-10-04T08:08:53.183Z,25568
2018-10-04T08:10:02.621Z,33376
2018-10-04T08:11:12.580Z,31072
2018-10-04T08:12:22.530Z,24320
2018-10-04T08:13:32.476Z,21216
2018-10-04T08:14:42.440Z,20640
2018-10-04T08:15:52.124Z,26144
2018-10-04T08:17:02.081Z,28288
2018-10-04T08:18:12.032Z,26592
2018-10-04T08:19:21.468Z,22688
2018-10-04T08:20:31.451Z,37504
2018-10-04T08:21:41.448Z,25664
2018-10-04T08:22:51.156Z,19168
2018-10-04T08:24:00.880Z,22400
2018-10-04T08:25:10.606Z,24352
2018-10-04T08:26:20.354Z,24288
2018-10-04T08:27:30.268Z,33024
2018-10-04T08:28:39.660Z,44448
2018-10-04T08:29:49.667Z,38976
2018-10-04T08:30:59.389Z,33120
2018-10-04T08:32:09.389Z,50080
2018-10-04T08:33:19.103Z,44128
2018-10-04T08:34:28.838Z,41344
2018-10-04T08:35:38.582Z,27360
2018-10-04T08:36:48.294Z,41536
2018-10-04T08:37:58.289Z,21568
2018-10-04T08:39:08.319Z,22976
2018-10-04T08:40:18.301Z,43168
2018-10-04T08:41:28.281Z,52672
2018-10-04T08:42:38.620Z,41728
2018-10-04T08:43:48.553Z,29504
2018-10-04T08:44:58.529Z,26432
2018-10-04T08:46:08.565Z,26016
2018-10-04T08:47:18.275Z,25984
2018-10-04T08:48:28.608Z,25664
2018-10-04T08:49:38.608Z,26144
2018-10-04T08:50:48.363Z,23520
2018-10-04T08:51:57.829Z,22880
2018-10-04T08:53:07.839Z,23072
2018-10-04T08:54:17.526Z,25824
2018-10-04T08:55:27.734Z,27264
2018-10-04T08:56:37.474Z,26432
2018-10-04T08:57:47.224Z,25664
2018-10-04T08:58:57.209Z,21024
2018-10-04T09:00:07.189Z,20256
2018-10-04T09:01:17.201Z,22400
2018-10-04T09:02:27.411Z,24864
2018-10-04T09:03:37.126Z,24640
2018-10-04T09:04:46.901Z,26208
2018-10-04T09:05:56.900Z,29312
2018-10-04T09:07:06.877Z,30144
2018-10-04T09:08:16.850Z,28704
2018-10-04T09:09:26.820Z,27616
2018-10-04T09:10:36.525Z,29184
2018-10-04T09:11:46.252Z,28352
2018-10-04T09:12:55.727Z,24800
2018-10-04T09:14:05.456Z,20480
2018-10-04T09:15:15.412Z,19808
2018-10-04T09:16:25.388Z,21248
2018-10-04T09:17:35.355Z,23648
2018-10-04T09:18:45.045Z,22944
2018-10-04T09:19:55.034Z,22432
2018-10-04T09:21:04.730Z,21664
2018-10-04T09:22:14.675Z,20896
2018-10-04T09:23:24.641Z,20576
2018-10-04T09:24:34.646Z,21664
2018-10-04T09:25:44.341Z,20256
2018-10-04T09:26:54.058Z,18560
2018-10-04T09:28:04.024Z,17376
2018-10-04T09:29:13.737Z,17408
2018-10-04T09:30:23.703Z,17568
2018-10-04T09:31:33.654Z,17696
2018-10-04T09:32:43.371Z,17472
2018-10-04T09:33:53.334Z,16272
2018-10-04T09:35:03.285Z,16256
2018-10-04T09:36:12.990Z,16712
2018-10-04T09:37:22.696Z,17824
2018-10-04T09:38:32.655Z,18592
2018-10-04T09:39:42.376Z,18272
2018-10-04T09:40:52.349Z,17792
2018-10-04T09:42:02.334Z,17536
2018-10-04T09:43:12.308Z,17952
2018-10-04T09:44:22.021Z,17920
2018-10-04T09:45:32.215Z,17760
2018-10-04T09:46:42.189Z,17088
2018-10-04T09:47:52.142Z,17536
2018-10-04T09:49:02.091Z,17760
2018-10-04T09:50:12.052Z,17196
2018-10-04T09:51:21.762Z,17856
2018-10-04T09:52:31.472Z,18400
2018-10-04T09:53:41.374Z,16776
2018-10-04T09:54:51.502Z,15444
2018-10-04T09:56:01.464Z,14944
2018-10-04T09:57:11.186Z,16096
2018-10-04T09:58:21.143Z,16032
2018-10-04T09:59:30.850Z,16064
2018-10-04T10:00:40.842Z,16308
2018-10-04T10:01:50.808Z,17824
2018-10-04T10:03:00.521Z,18720
2018-10-04T10:04:10.227Z,17632
2018-10-04T10:05:20.025Z,17044
2018-10-04T10:06:29.800Z,17112
2018-10-04T10:07:39.771Z,16816
2018-10-04T10:08:49.472Z,16516
2018-10-04T10:09:59.432Z,17068
2018-10-04T10:11:09.512Z,19616
2018-10-04T10:12:19.219Z,21824
2018-10-04T10:13:29.199Z,23872
2018-10-04T10:14:38.900Z,23200
2018-10-04T10:15:48.842Z,22560
2018-10-04T10:16:58.543Z,22176
2018-10-04T10:18:08.248Z,21696
2018-10-04T10:19:17.958Z,21280
2018-10-04T10:20:27.922Z,21152
2018-10-04T10:21:37.627Z,19744
2018-10-04T10:22:47.056Z,18528
2018-10-04T10:23:57.016Z,17632
2018-10-04T10:25:06.972Z,16868
2018-10-04T10:26:16.925Z,17004
2018-10-04T10:27:27.274Z,19008
2018-10-04T10:28:37.045Z,21696
2018-10-04T10:29:47.015Z,23104
2018-10-04T10:30:56.987Z,24288
2018-10-04T10:32:06.940Z,22336
2018-10-04T10:33:16.924Z,22272
2018-10-04T10:34:27.027Z,22560
2018-10-04T10:35:36.729Z,22144
2018-10-04T10:36:46.471Z,22752
2018-10-04T10:37:56.168Z,23200
2018-10-04T10:39:06.229Z,28960
2018-10-04T10:40:16.910Z,32064
2018-10-04T10:41:27.267Z,31616
2018-10-04T10:42:37.020Z,33152
2018-10-04T10:43:46.998Z,36416
2018-10-04T10:44:57.012Z,37312
2018-10-04T10:46:07.032Z,37120
2018-10-04T10:47:16.728Z,34848
2018-10-04T10:48:26.676Z,33184
2018-10-04T10:49:36.636Z,33248
2018-10-04T10:50:46.589Z,29920
2018-10-04T10:51:56.566Z,26240
2018-10-04T10:53:06.733Z,24160
2018-10-04T10:54:16.975Z,22304
2018-10-04T10:55:26.425Z,19616
2018-10-04T10:56:36.394Z,15848
2018-10-04T10:57:46.091Z,15716
2018-10-04T10:58:56.345Z,15888
2018-10-04T11:00:06.051Z,16384
2018-10-04T11:01:16.459Z,15680
2018-10-04T11:02:26.518Z,13560
2018-10-04T11:03:36.227Z,13032
2018-10-04T11:04:46.204Z,12164
2018-10-04T11:05:55.936Z,11764
2018-10-04T11:07:05.654Z,11208
2018-10-04T11:08:15.720Z,10108
2018-10-04T11:09:25.403Z,9228
2018-10-04T11:10:41.096Z,9420
2018-10-04T11:11:50.773Z,9508
2018-10-04T11:13:00.485Z,9356
2018-10-04T11:14:10.436Z,9284
2018-10-04T11:15:20.387Z,9468
2018-10-04T11:16:30.080Z,9672
2018-10-04T11:17:39.539Z,9556
2018-10-04T11:18:49.597Z,9908
2018-10-04T11:19:59.319Z,11396
2018-10-04T11:21:09.276Z,12540
2018-10-04T11:22:19.243Z,12832
2018-10-04T11:23:29.201Z,13512
2018-10-04T11:24:38.788Z,13992
2018-10-04T11:25:48.740Z,14308
2018-10-04T11:26:58.453Z,13156
2018-10-04T11:28:08.417Z,12720
2018-10-04T11:29:18.498Z,11820
2018-10-04T11:30:28.595Z,10932
2018-10-04T11:31:38.295Z,11340
2018-10-04T11:32:48.246Z,11840
2018-10-04T11:33:58.281Z,12552
2018-10-04T11:35:08.242Z,13980
2018-10-04T11:36:17.941Z,14868
2018-10-04T11:37:27.629Z,16264
2018-10-04T11:38:37.606Z,19488
2018-10-04T11:39:47.563Z,24480
2018-10-04T11:40:57.520Z,35616
2018-10-04T11:42:07.501Z,36448
2018-10-04T11:43:17.440Z,51456
2018-10-04T11:44:26.615Z,47456
2018-10-04T11:45:36.592Z,39136
2018-10-04T11:46:46.525Z,32608
2018-10-04T11:47:56.218Z,29472
2018-10-04T11:49:05.943Z,30464
2018-10-04T11:50:15.900Z,33888
2018-10-04T11:51:25.872Z,40352
2018-10-04T11:52:35.571Z,47744
2018-10-04T11:53:45.527Z,49632
2018-10-04T11:54:55.530Z,50144
2018-10-04T11:56:05.272Z,55840
2018-10-04T11:57:14.717Z,49824
2018-10-04T11:58:24.702Z,49696
2018-10-04T11:59:34.422Z,41760
2018-10-04T12:00:44.389Z,37664
2018-10-04T12:01:53.840Z,38816
2018-10-04T12:03:03.841Z,47136
2018-10-04T12:04:13.816Z,65248
2018-10-04T12:05:23.770Z,68320
2018-10-04T12:06:33.896Z,57728
2018-10-04T12:07:43.637Z,64864
2018-10-04T12:08:53.800Z,47904
2018-10-04T12:10:03.761Z,48064
2018-10-04T12:11:13.448Z,54048
2018-10-04T12:12:23.710Z,49344
2018-10-04T12:13:34.101Z,46720
2018-10-04T12:14:44.096Z,50880
2018-10-04T12:15:53.832Z,50944
2018-10-04T12:17:03.827Z,50560
2018-10-04T12:18:13.789Z,52544
2018-10-04T12:19:23.489Z,47520
2018-10-04T12:20:33.446Z,40704
2018-10-04T12:21:43.415Z,37952
2018-10-04T12:22:53.383Z,36896
2018-10-04T12:24:03.082Z,39296
2018-10-04T12:25:13.400Z,39616
2018-10-04T12:26:23.509Z,34752
2018-10-04T12:27:33.248Z,31040
2018-10-04T12:28:42.983Z,33216
2018-10-04T12:29:52.959Z,34560
2018-10-04T12:31:03.289Z,30688
2018-10-04T12:32:13.400Z,30240
2018-10-04T12:33:23.394Z,29760
2018-10-04T12:34:33.136Z,28736
2018-10-04T12:35:43.091Z,29280
2018-10-04T12:36:53.061Z,29312
2018-10-04T12:38:02.811Z,30048
2018-10-04T12:39:12.535Z,29440
2018-10-04T12:40:22.245Z,26496
2018-10-04T12:41:32.225Z,27904
2018-10-04T12:42:42.234Z,26464
2018-10-04T12:43:52.297Z,25056
2018-10-04T12:45:02.086Z,25920
2018-10-04T12:46:12.067Z,25952
2018-10-04T12:47:22.023Z,25728
2018-10-04T12:48:31.972Z,25760
2018-10-04T12:49:41.943Z,25568
2018-10-04T12:50:51.625Z,24832
2018-10-04T12:52:01.339Z,25184
2018-10-04T12:53:11.307Z,25152
2018-10-04T12:54:21.311Z,23776
2018-10-04T12:55:31.598Z,22624
2018-10-04T12:56:41.829Z,22624
2018-10-04T12:57:51.996Z,22528
2018-10-04T12:59:02.023Z,23392
2018-10-04T13:00:12.068Z,23360
2018-10-04T13:01:22.008Z,22528
2018-10-04T13:02:31.969Z,21984
2018-10-04T13:03:41.936Z,20960
2018-10-04T13:04:51.895Z,19584
2018-10-04T13:06:01.862Z,18944
2018-10-04T13:07:13.126Z,17072
2018-10-04T13:08:23.534Z,16624
2018-10-04T13:09:33.616Z,17112
2018-10-04T13:10:43.574Z,17600
2018-10-04T13:11:53.567Z,17952
2018-10-04T13:13:03.282Z,17888
2018-10-04T13:14:13.242Z,17824
2018-10-04T13:15:23.191Z,18080
2018-10-04T13:16:32.884Z,18304
2018-10-04T13:17:42.856Z,18656
2018-10-04T13:18:52.816Z,19232
2018-10-04T13:20:02.536Z,19840
2018-10-04T13:21:13.580Z,20224
2018-10-04T13:22:23.925Z,20768
2018-10-04T13:23:33.894Z,21536
2018-10-04T13:24:43.874Z,22688
2018-10-04T13:25:53.837Z,23744
2018-10-04T13:27:03.842Z,25280
2018-10-04T13:28:13.279Z,26816
2018-10-04T13:29:23.236Z,28224
2018-10-04T13:30:33.214Z,29120
2018-10-04T13:31:43.173Z,30848
2018-10-04T13:32:52.722Z,32640
2018-10-04T13:34:02.695Z,33984
2018-10-04T13:35:12.666Z,35328
2018-10-04T13:36:23.010Z,36928
2018-10-04T13:37:32.783Z,38784
2018-10-04T13:38:41.974Z,40256
2018-10-04T13:39:51.427Z,45376
2018-10-04T13:41:01.581Z,49280
2018-10-04T13:42:11.547Z,49024
2018-10-04T13:43:21.524Z,47840
2018-10-04T13:44:31.483Z,49984
2018-10-04T13:45:41.433Z,41408
2018-10-04T13:46:51.393Z,38016
2018-10-04T13:48:01.088Z,53056
2018-10-04T13:49:10.796Z,53696
2018-10-04T13:50:20.765Z,55904
2018-10-04T13:51:30.931Z,40608
2018-10-04T13:52:40.899Z,36192
2018-10-04T13:53:50.377Z,33248
2018-10-04T13:55:00.090Z,29568
2018-10-04T13:56:10.063Z,27456
2018-10-04T13:57:20.017Z,25856
2018-10-04T13:58:29.469Z,24064
2018-10-04T13:59:39.431Z,22528
2018-10-04T14:00:49.399Z,21792
2018-10-04T14:01:59.120Z,22336
2018-10-04T14:03:08.839Z,22464
2018-10-04T14:04:18.560Z,22720
2018-10-04T14:05:28.262Z,23424
2018-10-04T14:06:37.965Z,23968
2018-10-04T14:07:47.952Z,24512
2018-10-04T14:08:57.941Z,23776
2018-10-04T14:10:07.993Z,23200
2018-10-04T14:11:17.972Z,23520
2018-10-04T14:12:27.713Z,23520
2018-10-04T14:13:37.674Z,22976
2018-10-04T14:14:47.379Z,21792
2018-10-04T14:15:57.346Z,20768
2018-10-04T14:17:07.060Z,19168
2018-10-04T14:18:17.041Z,18112
2018-10-04T14:19:27.364Z,18016
2018-10-04T14:20:37.356Z,17076
2018-10-04T14:21:47.333Z,16508
2018-10-04T14:22:57.305Z,16248
2018-10-04T14:24:07.261Z,16400
2018-10-04T14:25:17.209Z,15656
2018-10-04T14:26:27.204Z,15152
2018-10-04T14:27:37.173Z,15640
2018-10-04T14:28:47.152Z,15788
2018-10-04T14:29:57.177Z,15200
2018-10-04T14:31:06.901Z,15308
2018-10-04T14:32:17.034Z,16364
2018-10-04T14:33:27.115Z,17376
2018-10-04T14:34:36.815Z,17696
2018-10-04T14:35:46.783Z,18176
2018-10-04T14:36:56.761Z,18912
2018-10-04T14:38:06.733Z,19296
2018-10-04T14:39:17.164Z,19104
2018-10-04T14:40:27.244Z,17728
2018-10-04T14:41:37.232Z,17952
2018-10-04T14:42:47.186Z,19616
2018-10-04T14:43:57.143Z,21632
2018-10-04T14:45:06.608Z,24256
2018-10-04T14:46:16.581Z,24992
2018-10-04T14:47:26.567Z,25024
2018-10-04T14:48:36.525Z,21984
2018-10-04T14:49:46.493Z,22176
2018-10-04T14:50:56.199Z,20736
2018-10-04T14:52:06.159Z,18848
2018-10-04T14:53:16.115Z,17280
2018-10-04T14:54:26.076Z,16868
2018-10-04T14:55:36.038Z,16436
2018-10-04T14:56:45.995Z,15296
2018-10-04T14:57:55.946Z,14460
2018-10-04T14:59:05.931Z,13940
2018-10-04T15:00:15.896Z,13820
2018-10-04T15:01:25.839Z,13708
2018-10-04T15:02:35.836Z,13808
2018-10-04T15:03:45.783Z,13664
2018-10-04T15:04:55.739Z,12624
2018-10-04T15:06:05.173Z,11264
2018-10-04T15:07:15.132Z,10452
2018-10-04T15:08:25.088Z,9848
2018-10-04T15:09:35.497Z,8916
2018-10-04T15:10:45.824Z,7748
2018-10-04T15:11:55.797Z,6864
2018-10-04T15:13:05.524Z,6328
2018-10-04T15:14:15.233Z,6064
2018-10-04T15:15:25.214Z,5528
2018-10-04T15:16:34.916Z,4928
2018-10-04T15:17:44.883Z,4588
2018-10-04T15:18:54.855Z,4532
2018-10-04T15:20:04.842Z,4836
2018-10-04T15:21:15.023Z,5176
2018-10-04T15:22:24.987Z,5464
2018-10-04T15:23:34.947Z,5208
2018-10-04T15:24:44.645Z,4664
2018-10-04T15:25:54.604Z,4384
2018-10-04T15:27:04.542Z,4184
2018-10-04T15:28:14.477Z,4104
2018-10-04T15:29:24.170Z,3912
2018-10-04T15:30:33.865Z,3776
2018-10-04T15:31:43.810Z,3832
2018-10-04T15:32:53.784Z,3760
2018-10-04T15:34:03.502Z,3620
2018-10-04T15:35:13.471Z,3548
2018-10-04T15:36:23.456Z,3540
2018-10-04T15:37:33.561Z,3812
2018-10-04T15:38:43.663Z,3908
2018-10-04T15:39:53.620Z,3928
2018-10-04T15:41:03.055Z,4000
2018-10-04T15:42:13.017Z,3948
2018-10-04T15:43:22.974Z,3832
2018-10-04T15:44:32.680Z,3796